Time;durP1;ratioP1;P1;durP2;ratioP2;P2;SDS_P1;SDS_P2;PMS_P1;PMS_P2;Temp;Humidity;BMP_temperature;BMP_pressure;BME280_temperature;BME280_humidity;BME280_pressure;Samples;Min_cycle;Max_cycle;Signal;HPM_P1;HPM_P2
2022/08/10 00:01:50;;;;;;;3.97;1.25;;;;;;;18.30;63.25;102563.66;5156921;27;20137;-76
2022/08/10 00:04:23;;;;;;;2.13;1.30;;;;;;;18.27;63.30;102560.22;5157309;27;20548;-76
2022/08/10 00:06:53;;;;;;;2.55;1.20;;;;;;;18.25;63.39;102559.41;5157099;27;20040;-76
2022/08/10 00:09:22;;;;;;;2.80;1.50;;;;;;;18.24;63.77;102566.56;5156825;27;20118;-76
2022/08/10 00:11:49;;;;;;;3.08;1.15;;;;;;;18.21;63.91;102560.47;5156666;27;20036;-76
2022/08/10 00:14:17;;;;;;;1.73;1.30;;;;;;;18.18;64.01;102555.22;5157044;27;20522;-76
2022/08/10 00:16:44;;;;;;;1.98;1.38;;;;;;;18.13;64.11;102553.56;5157008;27;20100;-76
2022/08/10 00:19:12;;;;;;;3.50;1.20;;;;;;;18.09;64.17;102564.41;5156879;27;20044;-75
2022/08/10 00:21:45;;;;;;;2.60;1.13;;;;;;;18.05;64.30;102550.31;5156978;27;20043;-76
2022/08/10 00:24:14;;;;;;;1.80;1.25;;;;;;;18.05;64.44;102558.31;5156904;27;20043;-76
2022/08/10 00:26:41;;;;;;;1.83;1.35;;;;;;;18.02;64.42;102555.75;5138562;27;20042;-76
2022/08/10 00:29:29;;;;;;;3.47;1.10;;;;;;;17.99;64.64;102550.53;5156845;27;20497;-75
2022/08/10 00:31:56;;;;;;;2.83;1.33;;;;;;;17.94;64.63;102544.44;5156850;27;20484;-76
2022/08/10 00:34:27;;;;;;;1.75;1.30;;;;;;;17.90;64.85;102542.81;5156391;27;20042;-76
2022/08/10 00:36:56;;;;;;;1.55;1.27;;;;;;;17.87;64.96;102551.78;5156690;27;20087;-76
2022/08/10 00:39:24;;;;;;;2.58;1.33;;;;;;;17.85;65.17;102551.84;5156819;27;20047;-76
2022/08/10 00:41:53;;;;;;;1.67;1.38;;;;;;;17.84;65.38;102554.56;5156402;27;20046;-76
2022/08/10 00:44:42;;;;;;;2.63;1.33;;;;;;;17.81;65.43;102549.31;5156612;27;20859;-75
2022/08/10 00:47:12;;;;;;;2.05;1.40;;;;;;;17.79;65.38;102548.50;5156695;27;20040;-76
2022/08/10 00:49:59;;;;;;;2.47;1.40;;;;;;;17.72;65.43;102547.81;5155958;27;20039;-76
2022/08/10 00:52:29;;;;;;;1.50;1.40;;;;;;;17.69;65.65;102540.81;5156437;27;20038;-76
2022/08/10 00:54:59;;;;;;;7.10;1.60;;;;;;;17.65;65.83;102540.97;5156122;27;20411;-76
2022/08/10 00:57:26;;;;;;;2.85;1.48;;;;;;;17.61;65.99;102540.19;5156676;27;20061;-76
2022/08/10 00:59:54;;;;;;;2.17;1.40;;;;;;;17.57;66.22;102532.34;5156393;27;20066;-76
2022/08/10 01:02:30;;;;;;;1.95;1.38;;;;;;;17.51;66.33;102534.28;5156309;27;20039;-76
2022/08/10 01:05:06;;;;;;;1.88;1.35;;;;;;;17.48;66.69;102530.84;5155792;27;20039;-76
2022/08/10 01:08:07;;;;;;;4.82;1.50;;;;;;;17.43;66.80;102539.00;5156423;27;20179;-76
2022/08/10 01:10:41;;;;;;;3.03;1.77;;;;;;;17.41;66.99;102542.63;5156665;27;20122;-76
2022/08/10 01:13:34;;;;;;;2.78;1.50;;;;;;;17.39;66.97;102542.69;5156307;27;20043;-76
2022/08/10 01:16:24;;;;;;;2.22;1.50;;;;;;;17.36;67.26;102535.66;5155630;27;20043;-75
2022/08/10 01:19:03;;;;;;;2.55;1.60;;;;;;;17.35;67.43;102528.56;5156270;27;20486;-76
2022/08/10 01:21:39;;;;;;;3.75;1.52;;;;;;;17.32;67.50;102526.03;5155352;27;20059;-75
2022/08/10 01:24:57;;;;;;;4.03;1.65;;;;;;;17.29;67.78;102522.59;5155954;27;20043;-76
2022/08/10 01:27:40;;;;;;;3.50;1.98;;;;;;;17.31;67.66;102534.06;5155565;27;20085;-76
2022/08/10 01:30:11;;;;;;;6.70;1.80;;;;;;;17.31;67.94;102523.38;5155865;27;20100;-76
2022/08/10 01:32:56;;;;;;;2.63;1.48;;;;;;;17.34;68.02;102526.84;5155721;27;20075;-76
2022/08/10 01:35:34;;;;;;;2.88;1.83;;;;;;;17.30;68.18;102526.97;5156132;27;20047;-76
2022/08/10 01:38:10;;;;;;;2.97;1.75;;;;;;;17.27;68.01;102522.63;5155371;27;20130;-76
2022/08/10 01:40:45;;;;;;;2.10;1.77;;;;;;;17.26;68.30;102518.22;5155291;27;20039;-75
2022/08/10 01:43:16;;;;;;;3.80;1.77;;;;;;;17.25;68.41;102520.94;5156020;27;20043;-75
2022/08/10 01:45:48;;;;;;;3.70;2.05;;;;;;;17.20;68.61;102523.75;5155793;27;20069;-76
2022/08/10 01:48:41;;;;;;;1.77;1.65;;;;;;;17.18;68.56;102520.25;5155815;27;20067;-76
2022/08/10 01:51:32;;;;;;;3.05;1.65;;;;;;;17.14;68.92;102522.13;5155116;27;20121;-75
2022/08/10 01:54:06;;;;;;;3.10;2.00;;;;;;;17.12;69.14;102515.13;5155509;27;20916;-76
2022/08/10 01:56:44;;;;;;;4.10;1.85;;;;;;;17.08;69.08;102512.53;5155345;27;20036;-76
2022/08/10 01:59:30;;;;;;;2.95;1.90;;;;;;;17.06;69.32;102530.38;5155979;27;20043;-76
2022/08/10 02:02:06;;;;;;;5.57;2.15;;;;;;;17.01;69.61;102523.44;5155511;27;20035;-75
2022/08/10 02:04:40;;;;;;;5.03;2.20;;;;;;;17.01;69.74;102527.00;5137618;27;20039;-76
2022/08/10 02:07:16;;;;;;;3.47;2.05;;;;;;;16.98;69.81;102524.41;5155229;27;20094;-76
2022/08/10 02:09:50;;;;;;;2.75;2.00;;;;;;;16.95;69.97;102519.16;5155115;27;20047;-76
2022/08/10 02:12:29;;;;;;;2.80;1.98;;;;;;;16.90;70.14;102519.28;5155457;27;20075;-76
2022/08/10 02:15:01;;;;;;;3.17;2.00;;;;;;;16.90;70.65;102519.28;5154895;27;20031;-76
2022/08/10 02:17:36;;;;;;;3.40;2.05;;;;;;;16.88;70.30;102522.91;5154297;27;20144;-76
2022/08/10 02:20:31;;;;;;;3.10;2.10;;;;;;;16.82;70.53;102521.31;5155205;27;20039;-75
2022/08/10 02:23:05;;;;;;;2.33;2.13;;;;;;;16.78;70.65;102525.00;5155423;27;20088;-76
2022/08/10 02:25:33;;;;;;;4.20;2.05;;;;;;;16.73;70.67;102522.47;5155314;27;20177;-76
2022/08/10 02:28:17;;;;;;;2.60;2.15;;;;;;;16.70;71.15;102527.88;5154536;27;20069;-75
2022/08/10 02:31:10;;;;;;;2.80;1.88;;;;;;;16.70;71.14;102521.66;5155067;27;20127;-76
2022/08/10 02:33:45;;;;;;;3.85;2.22;;;;;;;16.63;71.25;102520.09;5158450;27;20073;-76
2022/08/10 02:36:31;;;;;;;3.80;2.63;;;;;;;16.59;71.56;102517.53;5158231;27;20104;-76
2022/08/10 02:39:03;;;;;;;4.70;2.40;;;;;;;16.56;71.92;102522.97;5158743;27;20073;-76
2022/08/10 02:41:39;;;;;;;5.55;2.40;;;;;;;16.52;72.03;102520.44;5158694;27;20043;-75
2022/08/10 02:44:58;;;;;;;4.05;2.30;;;;;;;16.49;72.03;102523.16;5158167;27;20039;-76
2022/08/10 02:47:55;;;;;;;3.83;2.42;;;;;;;16.48;72.33;102513.44;5158876;27;20511;-76
2022/08/10 02:50:39;;;;;;;5.22;2.67;;;;;;;16.44;72.54;102504.66;5158421;27;20569;-76
2022/08/10 02:53:28;;;;;;;4.32;2.47;;;;;;;16.41;72.69;102504.75;5157235;27;20045;-75
2022/08/10 02:56:47;;;;;;;4.75;2.67;;;;;;;16.36;72.67;102510.19;5158416;27;20040;-76
2022/08/10 02:59:23;;;;;;;3.88;2.55;;;;;;;16.33;73.08;102504.09;5124410;27;20083;-75
2022/08/10 03:01:57;;;;;;;3.05;2.20;;;;;;;16.31;73.18;102509.47;5158141;27;20107;-75
2022/08/10 03:04:49;;;;;;;;;;;;;;;16.26;73.30;102508.72;5159092;27;20063;-76
2022/08/10 03:07:31;;;;;;;5.63;2.60;;;;;;;16.22;73.52;102507.06;5158111;27;19956;-76
2022/08/10 03:10:25;;;;;;;3.20;2.40;;;;;;;16.20;73.59;102506.25;5158401;27;20053;-76
2022/08/10 03:12:59;;;;;;;4.63;2.53;;;;;;;16.18;73.74;102505.41;5158245;27;20043;-76
2022/08/10 03:15:31;;;;;;;5.40;2.78;;;;;;;16.14;74.00;102512.59;5158447;27;20065;-76
2022/08/10 03:18:00;;;;;;;3.17;2.85;;;;;;;16.11;74.14;102510.00;5157413;27;20051;-76
2022/08/10 03:20:35;;;;;;;4.18;2.50;;;;;;;16.09;74.25;102506.50;5158071;27;20092;-76
2022/08/10 03:23:18;;;;;;;3.08;2.60;;;;;;;16.06;74.46;102506.63;5158079;27;20066;-75
2022/08/10 03:25:51;;;;;;;3.85;2.90;;;;;;;16.03;74.49;102504.03;5157886;27;20051;-76
2022/08/10 03:28:27;;;;;;;5.07;2.80;;;;;;;15.98;74.75;102505.00;5158294;27;20039;-75
2022/08/10 03:30:56;;;;;;;;;;;;;;;15.92;74.81;102510.50;5157613;27;20050;-76
2022/08/10 03:33:29;;;;;;;4.15;2.47;;;;;;;15.88;75.09;102503.50;5158117;27;20009;-76
2022/08/10 03:35:57;;;;;;;3.35;2.95;;;;;;;15.86;75.21;102499.16;5157947;27;20488;-75
2022/08/10 03:38:50;;;;;;;3.35;2.70;;;;;;;15.80;75.44;102503.69;5157841;27;20120;-76
2022/08/10 03:41:26;;;;;;;5.20;3.33;;;;;;;15.75;75.41;102500.28;5157889;27;20119;-75
2022/08/10 03:43:58;;;;;;;4.25;2.97;;;;;;;15.72;75.47;102499.47;5156660;27;20115;-76
2022/08/10 03:46:29;;;;;;;6.18;3.15;;;;;;;15.68;75.72;102501.34;5157612;27;20043;-75
2022/08/10 03:49:01;;;;;;;5.95;3.10;;;;;;;15.65;75.48;102506.72;5157389;27;20074;-76
2022/08/10 03:51:30;;;;;;;4.22;3.17;;;;;;;15.60;75.93;102506.84;5157647;27;20492;-75
2022/08/10 03:53:59;;;;;;;3.38;2.88;;;;;;;15.58;76.16;102497.19;5157314;27;20051;-75
2022/08/10 03:56:37;;;;;;;4.57;2.75;;;;;;;15.55;76.46;102498.13;5157156;27;20126;-76
2022/08/10 03:59:14;;;;;;;4.28;3.60;;;;;;;15.53;76.57;102497.28;5157508;27;20047;-76
2022/08/10 04:01:43;;;;;;;4.20;3.35;;;;;;;15.48;76.56;102494.75;5157576;27;20053;-76
2022/08/10 04:04:32;;;;;;;6.93;3.28;;;;;;;15.45;76.82;102502.78;5157341;27;20050;-76
2022/08/10 04:07:02;;;;;;;4.38;3.10;;;;;;;15.43;77.08;102496.63;5156351;27;20469;-75
2022/08/10 04:09:35;;;;;;;4.03;3.08;;;;;;;15.39;77.21;102497.63;5138258;27;20066;-76
2022/08/10 04:12:23;;;;;;;6.60;3.67;;;;;;;15.38;77.34;102499.41;5157199;27;20523;-75
2022/08/10 04:14:50;;;;;;;4.70;3.25;;;;;;;15.36;77.08;102497.69;5157195;27;20123;-76
2022/08/10 04:17:23;;;;;;;3.90;3.50;;;;;;;15.36;77.37;102503.88;5156192;27;20121;-76
2022/08/10 04:20:35;;;;;;;4.43;3.40;;;;;;;15.35;77.56;102498.59;5157388;27;20039;-75
2022/08/10 04:23:17;;;;;;;6.32;3.33;;;;;;;15.32;77.60;102498.66;5157084;27;20507;-76
2022/08/10 04:25:44;;;;;;;4.57;3.72;;;;;;;15.33;77.55;102497.75;5156999;27;20039;-76
2022/08/10 04:28:13;;;;;;;4.47;3.55;;;;;;;15.32;77.72;102496.91;5156682;27;20044;-76
2022/08/10 04:30:43;;;;;;;4.07;3.40;;;;;;;15.33;77.77;102496.00;5156940;27;20130;-75
2022/08/10 04:33:14;;;;;;;4.75;3.60;;;;;;;15.35;77.94;102493.28;5156945;27;20039;-76
2022/08/10 04:35:45;;;;;;;6.55;3.95;;;;;;;15.40;77.73;102495.84;5156649;27;20047;-76
2022/08/10 04:38:15;;;;;;;6.72;3.83;;;;;;;15.41;77.63;102501.13;5156360;27;20039;-76
2022/08/10 04:40:45;;;;;;;6.72;3.50;;;;;;;15.47;77.60;102497.44;5156646;27;20036;-76
2022/08/10 04:43:13;;;;;;;4.10;3.50;;;;;;;15.48;77.71;102497.41;5156907;27;20035;-76
2022/08/10 04:45:42;;;;;;;4.63;3.75;;;;;;;15.52;77.45;102501.72;5156930;27;20108;-76
2022/08/10 04:48:19;;;;;;;4.18;3.60;;;;;;;15.54;77.34;102507.00;5156032;27;20035;-76
2022/08/10 04:51:07;;;;;;;4.38;3.70;;;;;;;15.52;77.38;102503.50;5156459;27;20043;-76
2022/08/10 04:53:48;;;;;;;4.05;3.55;;;;;;;15.53;77.33;102498.16;5156368;27;20035;-76
2022/08/10 04:56:38;;;;;;;6.30;3.75;;;;;;;15.58;77.24;102494.53;5155546;27;20555;-76
2022/08/10 04:59:10;;;;;;;4.82;3.83;;;;;;;15.62;77.09;102506.81;5155888;27;20054;-76
2022/08/10 05:01:39;;;;;;;4.47;3.63;;;;;;;15.64;77.10;102504.97;5156413;27;20595;-76
2022/08/10 05:04:27;;;;;;;7.50;4.03;;;;;;;15.65;77.15;102504.97;5156352;27;20583;-75
2022/08/10 05:07:10;;;;;;;6.30;4.15;;;;;;;15.70;76.83;102504.84;5156532;27;20584;-76
2022/08/10 05:09:43;;;;;;;5.05;3.75;;;;;;;15.74;76.70;102508.28;5155456;27;20499;-76
2022/08/10 05:12:36;;;;;;;3.97;3.50;;;;;;;15.79;76.87;102503.72;5156171;27;20533;-76
2022/08/10 05:15:10;;;;;;;;;;;;;;;15.82;76.70;102496.53;5156903;27;20467;-76
2022/08/10 05:17:39;;;;;;;5.28;3.95;;;;;;;15.91;76.55;102494.59;5155420;27;20015;-75
2022/08/10 05:20:10;;;;;;;4.68;3.35;;;;;;;15.96;76.52;102493.56;5156192;27;20039;-76
2022/08/10 05:22:40;;;;;;;5.05;3.92;;;;;;;16.05;76.27;102503.06;5155651;27;20043;-76
2022/08/10 05:25:12;;;;;;;6.57;4.10;;;;;;;16.13;75.79;102501.06;5156098;27;20155;-76
2022/08/10 05:27:41;;;;;;;6.55;4.20;;;;;;;16.23;75.83;102500.81;5156326;27;20044;-75
2022/08/10 05:30:20;;;;;;;5.55;4.22;;;;;;;16.33;75.71;102507.63;5155655;27;20078;-76
2022/08/10 05:32:49;;;;;;;5.47;3.80;;;;;;;16.67;74.67;102505.78;5155840;27;20117;-75
2022/08/10 05:35:28;;;;;;;5.85;4.20;;;;;;;17.39;72.62;102514.25;5156172;27;20577;-76
2022/08/10 05:38:19;;;;;;;4.88;3.30;;;;;;;19.02;68.06;102504.94;5155923;27;20528;-75
2022/08/10 05:40:49;;;;;;;4.30;3.42;;;;;;;21.38;60.88;102500.75;5155864;27;20050;-76
2022/08/10 05:43:19;;;;;;;5.47;3.38;;;;;;;22.97;54.79;102502.28;5155491;27;20039;-76
2022/08/10 05:45:48;;;;;;;3.40;2.95;;;;;;;24.14;52.04;102504.41;5155793;27;20512;-76
2022/08/10 05:48:38;;;;;;;4.45;3.08;;;;;;;24.88;48.96;102498.88;5155887;27;20512;-76
2022/08/10 05:51:25;;;;;;;4.88;2.92;;;;;;;25.56;47.51;102491.72;5155917;27;20050;-76
2022/08/10 05:53:53;;;;;;;4.65;3.00;;;;;;;26.12;45.87;102496.00;5155386;27;20507;-76
2022/08/10 05:56:38;;;;;;;4.45;2.53;;;;;;;26.20;45.04;102499.91;5155754;27;20039;-76
2022/08/10 05:59:33;;;;;;;3.17;2.53;;;;;;;24.52;48.19;102511.06;5155459;27;20046;-76
2022/08/10 06:02:32;;;;;;;3.50;2.72;;;;;;;22.10;53.94;102504.25;5155056;27;20035;-76
2022/08/10 06:05:18;;;;;;;7.38;3.08;;;;;;;20.83;57.93;102517.72;5155477;27;20047;-75
2022/08/10 06:07:58;;;;;;;5.35;3.83;;;;;;;20.02;60.99;102521.31;5157676;27;20051;-76
2022/08/10 06:10:29;;;;;;;5.10;3.50;;;;;;;19.50;62.82;102508.34;5158301;27;20047;-76
2022/08/10 06:16:06;;;;;;;6.18;3.60;;;;;;;18.93;65.28;102507.03;5158932;27;20191;-76
2022/08/10 06:18:34;;;;;;;3.95;3.38;;;;;;;18.75;65.87;102513.06;5158965;27;20108;-75
2022/08/10 06:21:02;;;;;;;4.82;3.30;;;;;;;18.61;66.48;102516.28;5158671;27;20082;-76
2022/08/10 06:23:31;;;;;;;4.05;3.28;;;;;;;18.55;67.06;102511.16;5158755;27;20039;-75
2022/08/10 06:25:58;;;;;;;4.32;3.58;;;;;;;18.45;66.89;102506.16;5158785;27;20595;-76
2022/08/10 06:28:46;;;;;;;5.03;3.80;;;;;;;18.43;67.27;102508.00;5158634;27;20035;-76
2022/08/10 06:31:33;;;;;;;6.13;3.53;;;;;;;18.54;67.27;102512.06;5158845;27;20043;-75
2022/08/10 06:34:26;;;;;;;7.72;3.40;;;;;;;18.65;67.17;102511.69;5158998;27;20533;-75
2022/08/10 06:36:59;;;;;;;6.15;3.55;;;;;;;18.76;66.46;102512.16;5157959;27;20420;-75
2022/08/10 06:39:27;;;;;;;6.82;3.70;;;;;;;18.80;66.30;102508.41;5158941;27;20032;-75
2022/08/10 06:42:34;;;;;;;3.65;3.03;;;;;;;18.87;66.50;102506.38;5158581;27;20043;-75
2022/08/10 06:45:12;;;;;;;5.15;3.08;;;;;;;19.04;66.03;102506.59;5158607;27;20042;-75
2022/08/10 06:47:48;;;;;;;4.75;2.97;;;;;;;19.13;65.47;102501.84;5158602;27;20130;-75
2022/08/10 06:50:35;;;;;;;6.68;3.25;;;;;;;19.24;65.46;102507.59;5158477;27;20125;-75
2022/08/10 06:53:31;;;;;;;4.35;2.80;;;;;;;19.38;64.67;102504.41;5158386;27;20035;-75
2022/08/10 06:56:21;;;;;;;4.65;2.92;;;;;;;19.50;63.33;102509.22;5157441;27;20067;-75
2022/08/10 06:59:44;;;;;;;3.55;2.65;;;;;;;19.59;62.82;102501.72;5158451;27;20118;-76
2022/08/10 07:02:28;;;;;;;4.43;2.85;;;;;;;19.73;61.83;102506.53;5158337;27;20508;-75
2022/08/10 07:05:03;;;;;;;3.90;2.85;;;;;;;19.76;61.75;102512.59;5158721;27;20109;-75
2022/08/10 07:07:38;;;;;;;3.60;2.63;;;;;;;19.87;60.74;102509.47;5158309;27;20074;-75
2022/08/10 07:10:09;;;;;;;5.47;2.38;;;;;;;19.95;60.83;102511.84;5157976;27;20047;-75
2022/08/10 07:12:38;;;;;;;3.83;2.55;;;;;;;20.08;60.15;102517.50;5157858;27;20484;-75
2022/08/10 07:15:08;;;;;;;3.90;2.28;;;;;;;20.17;59.94;102519.78;5158068;27;20082;-75
2022/08/10 07:17:37;;;;;;;5.20;2.63;;;;;;;20.28;59.85;102524.69;5157686;27;20081;-75
2022/08/10 07:20:09;;;;;;;6.15;2.30;;;;;;;20.40;59.42;102520.56;5156407;27;20043;-76
2022/08/10 07:22:40;;;;;;;3.38;2.35;;;;;;;20.50;58.43;102524.56;5158114;27;20077;-75
2022/08/10 07:25:29;;;;;;;2.72;1.92;;;;;;;20.61;59.02;102522.25;5158118;27;20110;-75
2022/08/10 07:27:59;;;;;;;7.03;2.13;;;;;;;20.82;57.93;102526.69;5158015;27;20052;-75
2022/08/10 07:30:37;;;;;;;4.55;1.90;;;;;;;20.98;57.51;102521.47;5157461;27;20120;-75
2022/08/10 07:33:06;;;;;;;3.10;2.05;;;;;;;21.19;55.49;102522.28;5157880;27;20048;-76
2022/08/10 07:35:36;;;;;;;3.08;2.08;;;;;;;21.19;55.80;102519.59;5157720;27;20065;-75
2022/08/10 07:38:21;;;;;;;3.63;2.20;;;;;;;21.26;56.10;102515.66;5157509;27;20047;-75
2022/08/10 07:40:51;;;;;;;4.75;1.77;;;;;;;21.37;55.53;102523.16;5157658;27;20039;-75
2022/08/10 07:43:23;;;;;;;3.35;1.73;;;;;;;21.60;54.21;102524.75;5157704;27;20044;-75
2022/08/10 07:45:51;;;;;;;3.47;2.13;;;;;;;21.75;53.92;102524.88;5157755;27;20043;-75
2022/08/10 07:48:25;;;;;;;4.13;2.00;;;;;;;21.93;52.77;102518.56;5157951;27;20043;-75
2022/08/10 07:50:58;;;;;;;;;;;;;;;21.98;52.95;102519.22;5157827;27;20315;-75
2022/08/10 07:53:41;;;;;;;3.22;1.73;;;;;;;22.02;52.89;102512.75;5157604;27;19958;-75
2022/08/10 07:56:11;;;;;;;2.17;1.50;;;;;;;22.09;53.44;102512.41;5157676;27;20078;-76
2022/08/10 07:59:34;;;;;;;5.43;1.85;;;;;;;22.32;51.96;102517.44;5157091;27;20039;-76
2022/08/10 08:02:06;;;;;;;4.72;1.90;;;;;;;22.48;51.53;102514.81;5154143;27;20160;-76
2022/08/10 08:04:35;;;;;;;3.50;1.70;;;;;;;22.58;51.28;102514.31;5157530;27;20065;-75
2022/08/10 08:07:03;;;;;;;4.20;2.00;;;;;;;22.69;50.96;102516.38;5156780;27;20071;-75
2022/08/10 08:09:34;;;;;;;3.38;1.85;;;;;;;22.82;50.58;102516.56;5157224;27;20047;-76
2022/08/10 08:12:03;;;;;;;3.90;1.88;;;;;;;22.90;50.37;102511.63;5157528;27;20126;-76
2022/08/10 08:14:33;;;;;;;2.75;1.58;;;;;;;23.05;49.65;102507.19;5157131;27;20066;-76
2022/08/10 08:17:01;;;;;;;3.78;1.70;;;;;;;23.20;49.48;102508.16;5156197;27;20108;-76
2022/08/10 08:19:31;;;;;;;4.50;1.73;;;;;;;23.36;48.53;102510.81;5156584;27;20047;-76
2022/08/10 08:22:09;;;;;;;4.15;1.55;;;;;;;23.49;47.33;102501.09;5156941;27;20090;-76
2022/08/10 08:24:58;;;;;;;4.18;1.77;;;;;;;23.57;47.30;102509.56;5156977;27;20046;-75
2022/08/10 08:27:29;;;;;;;5.78;1.67;;;;;;;23.61;48.23;102506.69;5156912;27;20040;-75
2022/08/10 08:30:00;;;;;;;3.72;1.83;;;;;;;23.74;47.79;102507.72;5156358;27;20488;-75
2022/08/10 08:32:32;;;;;;;2.92;1.70;;;;;;;23.86;47.59;102506.09;5157036;27;20496;-75
2022/08/10 08:35:06;;;;;;;4.32;1.80;;;;;;;23.98;46.63;102504.50;5157204;27;20035;-75
2022/08/10 08:37:36;;;;;;;3.67;2.00;;;;;;;24.11;45.90;102505.47;5156924;27;20043;-75
2022/08/10 08:40:32;;;;;;;6.28;2.00;;;;;;;24.23;44.91;102508.38;5156240;27;20134;-75
2022/08/10 08:43:38;;;;;;;3.92;1.77;;;;;;;24.23;45.75;102509.22;5156236;27;20035;-75
2022/08/10 08:46:49;;;;;;;3.30;1.63;;;;;;;24.27;46.29;102507.22;5156558;27;20031;-75
2022/08/10 08:49:52;;;;;;;2.78;1.70;;;;;;;24.28;46.21;102506.25;5134846;27;20062;-75
2022/08/10 08:53:06;;;;;;;2.00;1.80;;;;;;;24.31;45.90;102500.69;5156582;27;20069;-76
2022/08/10 08:56:01;;;;;;;2.92;1.92;;;;;;;24.38;46.06;102507.41;5155927;27;20043;-75
2022/08/10 08:58:54;;;;;;;4.10;1.83;;;;;;;24.47;46.07;102496.03;5156612;27;20501;-75
2022/08/10 09:02:16;;;;;;;3.55;2.08;;;;;;;24.66;46.11;102502.97;5156691;27;20046;-75
2022/08/10 09:05:26;;;;;;;9.35;2.38;;;;;;;24.84;46.01;102505.47;5156220;27;20085;-76
2022/08/10 09:08:26;;;;;;;3.72;1.77;;;;;;;25.05;44.33;102495.97;5156095;27;20062;-75
2022/08/10 09:11:07;;;;;;;2.40;1.70;;;;;;;25.20;45.14;102496.78;5156093;27;20574;-76
2022/08/10 09:13:53;;;;;;;4.53;1.63;;;;;;;25.46;43.06;102504.13;5156436;27;20039;-76
2022/08/10 09:16:46;;;;;;;2.65;1.80;;;;;;;25.52;43.33;102501.00;5155926;27;20113;-75
2022/08/10 09:19:32;;;;;;;3.67;1.77;;;;;;;25.61;43.50;102494.09;5156275;27;20067;-75
2022/08/10 09:22:30;;;;;;;5.55;2.05;;;;;;;25.73;43.06;102490.56;5155457;27;20039;-75
2022/08/10 09:25:19;;;;;;;;;;;;;;;25.78;43.75;102491.09;5156572;27;20546;-75
2022/08/10 09:27:59;;;;;;;2.75;1.48;;;;;;;25.98;42.84;102483.44;5156317;27;19923;-75
2022/08/10 09:30:42;;;;;;;3.95;1.80;;;;;;;26.09;41.68;102488.09;5155769;27;20039;-75
2022/08/10 09:34:06;;;;;;;4.75;2.20;;;;;;;26.24;40.75;102487.03;5155711;27;20039;-76
2022/08/10 09:37:28;;;;;;;4.15;1.90;;;;;;;26.35;41.23;102481.72;5155281;27;20043;-75
2022/08/10 09:40:37;;;;;;;2.70;1.80;;;;;;;26.43;40.99;102469.47;5155788;27;20484;-75
2022/08/10 09:43:38;;;;;;;3.28;1.60;;;;;;;26.54;40.54;102483.06;5155245;27;20504;-75
2022/08/10 09:46:49;;;;;;;7.93;1.90;;;;;;;26.57;40.70;102476.56;5155565;27;20119;-75
2022/08/10 09:49:31;;;;;;;6.28;1.60;;;;;;;26.67;40.45;102466.81;5154958;27;20492;-75
2022/08/10 09:52:56;;;;;;;3.50;1.73;;;;;;;26.80;39.17;102464.13;5156149;27;20050;-75
2022/08/10 09:55:47;;;;;;;6.72;2.00;;;;;;;26.98;38.94;102461.84;5149571;27;20047;-76
2022/08/10 09:58:45;;;;;;;2.63;1.73;;;;;;;27.07;39.30;102463.00;5155767;27;20046;-76
2022/08/10 10:01:26;;;;;;;5.93;1.90;;;;;;;27.19;38.13;102456.69;5155276;27;20078;-76
2022/08/10 10:04:45;;;;;;;4.20;1.80;;;;;;;27.27;38.60;102459.66;5155414;27;20122;-75
2022/08/10 10:07:25;;;;;;;4.90;1.90;;;;;;;27.30;38.46;102449.56;5155326;27;20132;-76
2022/08/10 10:10:09;;;;;;;7.18;1.70;;;;;;;27.40;38.48;102456.84;5155466;27;20043;-76
2022/08/10 10:13:00;;;;;;;5.32;1.55;;;;;;;27.49;38.89;102449.03;5155174;27;20082;-75
2022/08/10 10:15:51;;;;;;;5.32;1.63;;;;;;;27.74;36.52;102443.44;5154521;27;20155;-76
2022/08/10 10:18:41;;;;;;;4.05;1.50;;;;;;;27.73;37.54;102446.25;5154776;27;20508;-75
2022/08/10 10:21:26;;;;;;;5.28;1.95;;;;;;;27.87;36.49;102440.63;5155383;27;20039;-75
2022/08/10 10:24:29;;;;;;;2.35;1.50;;;;;;;28.00;36.26;102434.22;5155481;27;20126;-75
2022/08/10 10:27:10;;;;;;;2.67;1.58;;;;;;;28.14;35.23;102438.56;5155139;27;20050;-75
2022/08/10 10:30:01;;;;;;;5.90;1.63;;;;;;;28.11;36.04;102428.84;5155563;27;20043;-76
2022/08/10 10:32:50;;;;;;;2.78;1.52;;;;;;;28.30;35.64;102430.03;5155144;27;20563;-76
2022/08/10 10:35:42;;;;;;;4.18;1.75;;;;;;;28.49;34.38;102426.66;5155214;27;20153;-75
2022/08/10 10:38:12;;;;;;;2.92;1.60;;;;;;;28.49;35.05;102424.84;5155098;27;20127;-76
2022/08/10 10:41:06;;;;;;;3.17;1.80;;;;;;;28.56;34.56;102419.78;5154335;27;20073;-75
2022/08/10 10:44:21;;;;;;;3.20;1.73;;;;;;;28.62;34.53;102421.97;5155460;27;20044;-76
2022/08/10 10:47:23;;;;;;;4.10;1.52;;;;;;;28.66;34.37;102411.72;5155223;27;20047;-75
2022/08/10 10:50:10;;;;;;;5.30;1.83;;;;;;;28.82;34.65;102414.03;5154750;27;20039;-75
2022/08/10 10:53:09;;;;;;;3.40;1.80;;;;;;;28.96;33.99;102402.88;5154696;27;20523;-75
2022/08/10 10:56:01;;;;;;;3.03;1.60;;;;;;;29.15;33.44;102392.31;5158197;27;20039;-75
2022/08/10 10:59:19;;;;;;;4.15;2.00;;;;;;;29.24;33.07;102392.38;5158357;27;20027;-75
2022/08/10 11:02:43;;;;;;;;;;;;;;;29.28;32.42;102399.28;5158389;27;20043;-75
2022/08/10 11:05:22;;;;;;;2.93;1.50;;;;;;;29.27;32.87;102386.69;5158355;27;19923;-75
2022/08/10 11:08:11;;;;;;;3.85;1.92;;;;;;;29.36;32.36;102389.63;5158015;27;20058;-75
2022/08/10 11:11:09;;;;;;;4.43;1.75;;;;;;;29.29;32.98;102386.53;5158390;27;20046;-75
2022/08/10 11:14:27;;;;;;;1.98;1.35;;;;;;;29.40;32.49;102377.50;5157984;27;20497;-75
2022/08/10 11:17:21;;;;;;;5.07;1.85;;;;;;;29.50;31.81;102366.69;5157873;27;20054;-75
2022/08/10 11:20:17;;;;;;;3.53;1.63;;;;;;;29.54;31.82;102362.72;5158126;27;20108;-76
2022/08/10 11:23:02;;;;;;;3.15;1.67;;;;;;;29.71;31.35;102367.50;5158266;27;20039;-75
2022/08/10 11:25:36;;;;;;;3.38;1.60;;;;;;;29.96;29.20;102372.63;5157563;27;20028;-75
2022/08/10 11:28:24;;;;;;;3.42;1.75;;;;;;;29.90;29.28;102360.44;5157851;27;20088;-75
2022/08/10 11:31:05;;;;;;;4.57;1.50;;;;;;;29.91;29.80;102363.00;5157576;27;20066;-76
2022/08/10 11:34:05;;;;;;;4.53;1.70;;;;;;;29.90;29.65;102363.16;5157453;27;20183;-75
2022/08/10 11:37:25;;;;;;;4.72;1.63;;;;;;;30.00;28.81;102363.22;5158189;27;20043;-75
2022/08/10 11:40:07;;;;;;;5.65;1.75;;;;;;;29.97;29.71;102355.34;5157814;27;20042;-77
2022/08/10 11:42:53;;;;;;;3.20;1.63;;;;;;;30.12;28.74;102353.94;5157238;27;20047;-75
2022/08/10 11:45:28;;;;;;;4.93;1.60;;;;;;;30.33;28.45;102351.13;5157896;27;20039;-75
2022/08/10 11:48:17;;;;;;;4.38;1.65;;;;;;;30.37;28.31;102352.56;5157750;27;20046;-76
2022/08/10 11:51:24;;;;;;;3.38;1.50;;;;;;;30.50;28.08;102352.31;5157824;27;20106;-75
2022/08/10 11:54:07;;;;;;;2.70;1.55;;;;;;;30.56;27.99;102350.03;5157284;27;20043;-75
2022/08/10 11:56:47;;;;;;;3.67;1.50;;;;;;;30.58;27.70;102342.59;5157240;27;20092;-75
2022/08/10 12:02:07;;;;;;;3.53;1.52;;;;;;;30.70;27.14;102336.00;5157716;27;20043;-75
2022/08/10 12:04:38;;;;;;;3.38;1.40;;;;;;;30.66;27.35;102343.59;5157009;27;20492;-75
2022/08/10 12:07:07;;;;;;;3.38;1.60;;;;;;;30.69;27.57;102347.91;5156870;27;20047;-75
2022/08/10 12:09:55;;;;;;;1.88;1.48;;;;;;;30.65;27.23;102344.59;5156161;27;20434;-75
2022/08/10 12:12:51;;;;;;;4.32;1.65;;;;;;;30.55;27.80;102343.75;5156907;27;20043;-75
2022/08/10 12:15:35;;;;;;;4.90;1.40;;;;;;;30.64;27.49;102323.84;5157068;27;20058;-75
2022/08/10 12:18:14;;;;;;;3.45;1.70;;;;;;;30.72;27.68;102322.25;5156397;27;20051;-76
2022/08/10 12:20:50;;;;;;;5.78;1.40;;;;;;;30.83;27.33;102322.09;5157110;27;20100;-75
2022/08/10 12:23:37;;;;;;;1.67;1.50;;;;;;;30.95;26.69;102323.66;5157276;27;20073;-75
2022/08/10 12:26:25;;;;;;;3.58;1.30;;;;;;;31.06;26.62;102325.34;5157041;27;20046;-75
2022/08/10 12:29:18;;;;;;;1.95;1.30;;;;;;;31.11;26.33;102323.09;5156762;27;20039;-75
2022/08/10 12:32:10;;;;;;;2.65;1.40;;;;;;;31.21;26.30;102314.88;5156227;27;20088;-76
2022/08/10 12:35:03;;;;;;;2.25;1.17;;;;;;;31.30;25.50;102310.41;5156833;27;20035;-75
2022/08/10 12:37:48;;;;;;;1.80;1.40;;;;;;;31.25;26.13;102313.59;5156705;27;20086;-75
2022/08/10 12:40:29;;;;;;;1.70;1.30;;;;;;;31.36;25.41;102304.38;5157129;27;20089;-75
2022/08/10 12:43:42;;;;;;;1.90;1.10;;;;;;;31.42;24.51;102306.50;5156674;27;20070;-75